Аэропорт: Белгород . Белгород

ICAO: UUOB

METAR:
2019/01/21 22:30
UUOB 212230Z 27003MPS 7000 NSC M12/M14 Q1018 R29/820341 NOSIG
METAR:
Информация по данной станции не доступна